Portada
METAR-TAF:

METAR-TAF

Aeroports :

Tàrent, Itàlia

latitud: 40-31N, longitud: 017-24E, altitud: 64 m

Observació

L'informe es va fer fa 6 hores i 14 minuts, a les 17:50 UTC
Vent 13 kt del Nord
Temperatura 34°C
Humitat 28%
Pressió 1013 hPa
Visibilitat 10 km o més
sense núvols per sota de 1500 mi sense presència de cumulonimbus.

METAR: LIBG 181750Z 01013KT CAVOK 34/13 Q1013

Hora: 02:04 (00:04 UTC)

Pronòstic

L'informe es va fer fa 10 hores i 4 minuts, a les 14:00 UTC
Pronòstic vàlid del 18 a les 15 UTC al 18 a les 24 UTC
Vent 14 kt del Nord
Visibilitat 10 km o més
sense núvols per sota de 1500 mi sense presència de cumulonimbus.
Evolucionant progressivament
l' 18 a les 18 UTC al 18 a les 20 UTC
Vent 5 kt amb direcció variable

TAF: LIBG 181400Z 1815/1824 36014KT CAVOK BECMG 1818/1820 VRB05KT

Observacions i pronòstics meteorològics de més de 4000 aeroports (METAR i TAF).

Les estacions disponibles són els punts grocs i vermells al mapa.

Posi el ratolí al punt desitjat per veure el nom de l'estació.

Feu clic per veure les observacions i els pronòstics meteorològics.

Per canviar el mapa: feu clic els botons verds amb una creu de color negre per apropar; al botó verd amb un guió per allunyar la imatge; o en les fletxes verdes per a mapes adjacents.


METAR-TAF: